createdAt,value
2019-04-11T00:02:22.695Z,100127.25
2019-04-11T00:06:29.807Z,100128.23
2019-04-11T00:10:37.506Z,100129.23
2019-04-11T00:14:45.536Z,100123.97
2019-04-11T00:18:54.725Z,100128.91
2019-04-11T00:23:02.912Z,100127.91
2019-04-11T00:27:10.763Z,100128.56
2019-04-11T00:31:18.804Z,100125.95
2019-04-11T00:35:25.953Z,100123.48
2019-04-11T00:39:33.754Z,100131.36
2019-04-11T00:43:43.774Z,100132.69
2019-04-11T00:47:51.225Z,100140.41
2019-04-11T00:51:58.364Z,100138.08
2019-04-11T00:56:06.187Z,100137.93
2019-04-11T01:00:13.405Z,100133.48
2019-04-11T01:04:20.597Z,100135.77
2019-04-11T01:08:29.459Z,100131.34
2019-04-11T01:12:36.558Z,100146.45
2019-04-11T01:16:54.460Z,100141.31
2019-04-11T01:21:02.355Z,100143.94
2019-04-11T01:25:10.496Z,100145.08
2019-04-11T01:29:17.620Z,100150.65
2019-04-11T01:33:24.418Z,100151.47
2019-04-11T01:37:31.456Z,100147.35
2019-04-11T01:41:38.432Z,100150.98
2019-04-11T01:45:45.641Z,100153.41
2019-04-11T01:49:53.071Z,100147.17
2019-04-11T01:53:59.857Z,100149.31
2019-04-11T01:58:06.724Z,100159.77
2019-04-11T02:02:28.696Z,100158.27
2019-04-11T02:06:36.205Z,100150.87
2019-04-11T02:10:43.269Z,100154.14
2019-04-11T02:14:50.181Z,100159.17
2019-04-11T02:18:56.949Z,100155.59
2019-04-11T02:23:13.391Z,100157.70
2019-04-11T02:27:24.432Z,100159.34
2019-04-11T02:31:32.653Z,100168.95
2019-04-11T02:35:40.432Z,100168.63
2019-04-11T02:39:49.341Z,100175.48
2019-04-11T02:43:57.617Z,100165.00
2019-04-11T02:48:09.191Z,100181.36
2019-04-11T02:52:15.256Z,100183.61
2019-04-11T02:56:23.792Z,100187.22
2019-04-11T03:00:33.669Z,100192.27
2019-04-11T03:04:41.666Z,100196.03
2019-04-11T03:08:50.822Z,100202.91
2019-04-11T03:12:59.019Z,100199.23
2019-04-11T03:17:16.398Z,100209.02
2019-04-11T03:21:20.487Z,100221.75
2019-04-11T03:25:24.689Z,100221.06
2019-04-11T03:29:34.875Z,100230.06
2019-04-11T03:34:31.426Z,100227.94
2019-04-11T03:38:12.447Z,100236.16
2019-04-11T03:42:15.809Z,100233.85
2019-04-11T03:46:25.022Z,100237.78
2019-04-11T03:50:20.706Z,100246.58
2019-04-11T03:54:25.295Z,100245.11
2019-04-11T03:58:33.184Z,100251.44
2019-04-11T04:02:41.350Z,100258.14
2019-04-11T04:06:49.898Z,100259.73
2019-04-11T04:11:23.176Z,100263.28
2019-04-11T04:15:51.917Z,100272.66
2019-04-11T04:20:05.719Z,100276.64
2019-04-11T04:24:39.039Z,100279.45
2019-04-11T04:28:43.173Z,100284.36
2019-04-11T04:32:49.957Z,100290.95
2019-04-11T04:36:57.941Z,100290.77
2019-04-11T04:41:20.049Z,100291.77
2019-04-11T04:45:19.214Z,100288.77
2019-04-11T04:49:27.959Z,100290.84
2019-04-11T04:53:35.574Z,100307.73
2019-04-11T04:57:42.983Z,100313.15
2019-04-11T05:01:50.852Z,100315.28
2019-04-11T05:05:58.329Z,100323.65
2019-04-11T05:10:08.796Z,100325.17
2019-04-11T05:14:16.390Z,100327.94
2019-04-11T05:18:23.701Z,100336.22
2019-04-11T05:22:31.639Z,100329.34
2019-04-11T05:26:39.631Z,100328.37
2019-04-11T05:30:46.482Z,100344.17
2019-04-11T05:34:53.147Z,100349.12
2019-04-11T05:39:00.405Z,100340.68
2019-04-11T05:43:09.096Z,100348.36
2019-04-11T05:47:18.517Z,100361.30
2019-04-11T05:51:25.245Z,100361.41
2019-04-11T05:55:36.345Z,100358.79
2019-04-11T05:59:45.925Z,100362.68
2019-04-11T06:03:55.475Z,100371.39
2019-04-11T06:08:05.398Z,100368.39
2019-04-11T06:12:31.825Z,100369.59
2019-04-11T06:16:46.229Z,100372.78
2019-04-11T06:20:51.489Z,100373.75
2019-04-11T06:25:19.307Z,100386.23
2019-04-11T06:29:31.256Z,100382.66
2019-04-11T06:33:42.850Z,100391.56
2019-04-11T06:38:08.145Z,100393.55
2019-04-11T06:42:46.173Z,100399.13
2019-04-11T06:47:10.704Z,100403.36
2019-04-11T06:51:30.986Z,100407.84
2019-04-11T06:55:57.338Z,100404.30
2019-04-11T07:00:05.238Z,100412.66
2019-04-11T07:04:22.229Z,100414.98
2019-04-11T07:08:34.201Z,100416.02
2019-04-11T07:13:02.001Z,100413.45
2019-04-11T07:17:27.502Z,100416.70
2019-04-11T07:21:36.461Z,100415.59
2019-04-11T07:26:04.479Z,100418.88
2019-04-11T07:30:29.371Z,100421.21
2019-04-11T07:34:54.382Z,100417.58
2019-04-11T07:39:09.833Z,100425.66
2019-04-11T07:43:19.430Z,100419.38
2019-04-11T07:47:37.585Z,100413.30
2019-04-11T07:51:48.609Z,100407.49
2019-04-11T07:55:57.462Z,100418.85
2019-04-11T08:00:38.608Z,100414.56
2019-04-11T08:05:07.365Z,100420.72
2019-04-11T08:09:33.490Z,100423.61
2019-04-11T08:13:57.880Z,100420.28
2019-04-11T08:18:12.475Z,100423.11
2019-04-11T08:22:30.692Z,100427.09
2019-04-11T08:27:05.862Z,100428.86
2019-04-11T08:31:34.614Z,100427.05
2019-04-11T08:36:09.509Z,100428.72
2019-04-11T08:40:17.615Z,100424.17
2019-04-11T08:44:29.970Z,100426.36
2019-04-11T08:48:39.363Z,100417.96
2019-04-11T08:53:04.566Z,100426.08
2019-04-11T08:57:13.762Z,100422.80
2019-04-11T09:01:22.134Z,100424.65
2019-04-11T09:05:55.310Z,100412.95
2019-04-11T09:10:31.805Z,100429.31
2019-04-11T09:14:56.774Z,100423.73
2019-04-11T09:19:10.450Z,100416.86
2019-04-11T09:23:21.746Z,100427.66
2019-04-11T09:27:49.013Z,100436.75
2019-04-11T09:32:15.989Z,100425.05
2019-04-11T09:36:40.980Z,100428.05
2019-04-11T09:40:54.507Z,100424.16
2019-04-11T09:45:19.623Z,100425.01
2019-04-11T09:49:36.076Z,100422.59
2019-04-11T09:53:45.020Z,100434.46
2019-04-11T09:57:58.197Z,100424.56
2019-04-11T10:02:21.701Z,100435.81
2019-04-11T10:07:03.409Z,100427.13
2019-04-11T10:11:30.372Z,100419.25
2019-04-11T10:15:54.248Z,100420.98
2019-04-11T10:20:04.727Z,100415.34
2019-04-11T10:24:36.767Z,100418.83
2019-04-11T10:29:12.199Z,100416.59
2019-04-11T10:33:35.724Z,100407.77
2019-04-11T10:37:44.308Z,100407.66
2019-04-11T10:41:54.527Z,100407.23
2019-04-11T10:46:13.331Z,100414.28
2019-04-11T10:50:40.246Z,100409.23
2019-04-11T10:55:03.730Z,100412.70
2019-04-11T10:59:10.902Z,100416.39
2019-04-11T11:03:27.297Z,100406.69
2019-04-11T11:07:34.981Z,100409.74
2019-04-11T11:11:51.036Z,100406.07
2019-04-11T11:16:00.134Z,100414.89
2019-04-11T11:20:38.891Z,100405.15
2019-04-11T11:25:00.137Z,100419.11
2019-04-11T11:29:20.574Z,100411.56
2019-04-11T11:33:30.082Z,100419.21
2019-04-11T11:37:53.435Z,100424.27
2019-04-11T11:42:22.186Z,100427.20
2019-04-11T11:46:47.997Z,100428.89
2019-04-11T11:50:54.980Z,100422.80
2019-04-11T11:55:02.201Z,100432.73
2019-04-11T11:59:15.265Z,100436.77
2019-04-11T12:03:42.630Z,100436.44
2019-04-11T12:08:08.749Z,100437.02
2019-04-11T12:12:19.790Z,100430.08
2019-04-11T12:16:37.674Z,100428.63
2019-04-11T12:20:59.051Z,100424.94
2019-04-11T12:25:20.828Z,100421.98
2019-04-11T12:30:04.444Z,100414.38
2019-04-11T12:34:30.314Z,100415.95
2019-04-11T12:39:00.782Z,100416.51
2019-04-11T12:43:10.848Z,100428.25
2019-04-11T12:47:23.218Z,100415.72
2019-04-11T12:51:49.349Z,100413.36
2019-04-11T12:56:15.142Z,100414.94
2019-04-11T13:00:59.604Z,100410.44
2019-04-11T13:05:07.502Z,100402.74
2019-04-11T13:09:33.435Z,100398.41
2019-04-11T13:13:50.404Z,100401.80
2019-04-11T13:18:32.057Z,100399.61
2019-04-11T13:22:42.488Z,100392.87
2019-04-11T13:27:28.401Z,100387.22
2019-04-11T13:31:54.280Z,100387.55
2019-04-11T13:36:17.866Z,100388.16
2019-04-11T13:40:49.782Z,100385.09
2019-04-11T13:44:56.523Z,100392.84
2019-04-11T13:49:25.042Z,100390.16
2019-04-11T13:53:53.692Z,100385.78
2019-04-11T13:58:28.580Z,100380.11
2019-04-11T14:02:51.186Z,100386.10
2019-04-11T14:06:55.955Z,100376.81
2019-04-11T14:11:08.557Z,100383.56
2019-04-11T14:15:18.855Z,100385.16
2019-04-11T14:19:44.644Z,100375.46
2019-04-11T14:24:11.697Z,100370.80
2019-04-11T14:28:19.540Z,100370.02
2019-04-11T14:32:31.125Z,100374.62
2019-04-11T14:36:52.729Z,100371.52
2019-04-11T14:41:09.891Z,100377.30
2019-04-11T14:45:36.592Z,100379.36
2019-04-11T14:49:45.945Z,100376.70
2019-04-11T14:54:08.159Z,100375.91
2019-04-11T14:58:44.808Z,100371.82
2019-04-11T15:03:08.433Z,100383.17
2019-04-11T15:07:15.655Z,100368.36
2019-04-11T15:11:36.954Z,100366.02
2019-04-11T15:16:10.983Z,100363.38
2019-04-11T15:20:34.088Z,100364.70
2019-04-11T15:24:50.798Z,100366.28
2019-04-11T15:29:05.271Z,100357.14
2019-04-11T15:33:54.483Z,100358.77
2019-04-11T15:38:32.565Z,100358.03
2019-04-11T15:43:13.369Z,100356.47
2019-04-11T15:47:20.904Z,100360.97
2019-04-11T15:51:31.687Z,100353.40
2019-04-11T15:55:57.370Z,100359.02
2019-04-11T16:00:31.247Z,100359.09
2019-04-11T16:04:59.336Z,100354.84
2019-04-11T16:09:13.943Z,100357.06
2019-04-11T16:13:32.653Z,100356.87
2019-04-11T16:17:57.996Z,100362.99
2019-04-11T16:22:16.310Z,100364.58
2019-04-11T16:26:29.448Z,100361.82
2019-04-11T16:30:45.055Z,100365.55
2019-04-11T16:35:07.689Z,100364.56
2019-04-11T16:39:50.363Z,100373.50
2019-04-11T16:43:58.491Z,100368.58
2019-04-11T16:48:14.803Z,100381.58
2019-04-11T16:52:23.043Z,100383.12
2019-04-11T16:56:30.162Z,100388.34
2019-04-11T17:00:37.200Z,100386.27
2019-04-11T17:04:43.966Z,100390.37
2019-04-11T17:08:56.904Z,100395.92
2019-04-11T17:13:04.125Z,100393.89
2019-04-11T17:17:15.157Z,100402.02
2019-04-11T17:21:19.359Z,100400.50
2019-04-11T17:25:26.187Z,100404.41
2019-04-11T17:29:33.191Z,100407.22
2019-04-11T17:33:39.964Z,100410.95
2019-04-11T17:37:46.760Z,100414.89
2019-04-11T17:41:53.443Z,100416.31
2019-04-11T17:46:00.356Z,100421.36
2019-04-11T17:50:08.029Z,100425.33
2019-04-11T17:54:14.894Z,100431.33
2019-04-11T17:58:21.623Z,100435.36
2019-04-11T18:02:28.508Z,100441.27
2019-04-11T18:06:35.363Z,100440.39
2019-04-11T18:10:42.249Z,100444.00
2019-04-11T18:14:48.957Z,100449.22
2019-04-11T18:18:56.691Z,100453.85
2019-04-11T18:23:06.550Z,100462.52
2019-04-11T18:27:13.294Z,100464.05
2019-04-11T18:31:19.949Z,100470.80
2019-04-11T18:35:26.651Z,100472.85
2019-04-11T18:39:33.680Z,100479.38
2019-04-11T18:43:41.802Z,100490.14
2019-04-11T18:47:49.103Z,100491.35
2019-04-11T18:51:56.052Z,100497.46
2019-04-11T18:56:02.785Z,100496.89
2019-04-11T19:00:14.876Z,100502.86
2019-04-11T19:04:31.863Z,100514.05
2019-04-11T19:08:30.156Z,100519.55
2019-04-11T19:12:36.961Z,100524.19
2019-04-11T19:16:46.104Z,100524.89
2019-04-11T19:20:52.820Z,100533.77
2019-04-11T19:24:59.885Z,100536.42
2019-04-11T19:29:06.787Z,100539.39
2019-04-11T19:33:13.869Z,100550.93
2019-04-11T19:37:20.681Z,100547.14
2019-04-11T19:41:33.266Z,100550.27
2019-04-11T19:45:40.180Z,100552.56
2019-04-11T19:49:46.861Z,100549.90
2019-04-11T19:53:53.576Z,100539.37
2019-04-11T19:58:00.480Z,100555.13
2019-04-11T20:02:07.265Z,100550.17
2019-04-11T20:06:14.269Z,100553.62
2019-04-11T20:10:21.078Z,100553.11
2019-04-11T20:14:27.764Z,100561.46
2019-04-11T20:18:34.431Z,100560.48
2019-04-11T20:22:42.341Z,100553.37
2019-04-11T20:26:50.309Z,100556.77
2019-04-11T20:30:57.576Z,100564.44
2019-04-11T20:35:09.328Z,100572.30
2019-04-11T20:39:16.041Z,100562.41
2019-04-11T20:43:25.468Z,100562.71
2019-04-11T20:47:31.480Z,100571.81
2019-04-11T20:51:38.419Z,100572.08
2019-04-11T20:55:45.200Z,100574.55
2019-04-11T20:59:51.934Z,100575.27
2019-04-11T21:04:00.668Z,100576.21
2019-04-11T21:08:08.180Z,100579.63
2019-04-11T21:12:16.576Z,100574.41
2019-04-11T21:16:23.400Z,100572.36
2019-04-11T21:20:31.512Z,100581.56
2019-04-11T21:24:38.276Z,100581.11
2019-04-11T21:28:44.980Z,100580.48
2019-04-11T21:32:54.804Z,100584.64
2019-04-11T21:37:02.624Z,100580.73
2019-04-11T21:41:09.661Z,100583.27
2019-04-11T21:45:16.365Z,100587.04
2019-04-11T21:49:23.050Z,100594.06
2019-04-11T21:53:36.455Z,100598.28
2019-04-11T21:57:38.328Z,100596.55
2019-04-11T22:01:46.498Z,100595.98
2019-04-11T22:05:53.238Z,100603.31
2019-04-11T22:09:59.954Z,100603.15
2019-04-11T22:14:11.012Z,100609.87
2019-04-11T22:18:16.816Z,100604.83
2019-04-11T22:22:23.767Z,100606.91
2019-04-11T22:26:30.747Z,100605.88
2019-04-11T22:30:37.459Z,100603.73
2019-04-11T22:34:47.917Z,100611.80
2019-04-11T22:38:54.744Z,100614.94
2019-04-11T22:43:08.123Z,100615.42
2019-04-11T22:47:14.175Z,100610.43
2019-04-11T22:51:20.876Z,100617.42
2019-04-11T22:55:27.547Z,100618.73
2019-04-11T22:59:34.611Z,100618.58
2019-04-11T23:03:47.710Z,100618.89
2019-04-11T23:07:54.474Z,100615.66
2019-04-11T23:12:01.163Z,100615.17
2019-04-11T23:16:07.850Z,100621.48
2019-04-11T23:20:15.041Z,100625.97
2019-04-11T23:24:21.814Z,100630.00
2019-04-11T23:28:28.536Z,100630.09
2019-04-11T23:32:35.217Z,100629.38
2019-04-11T23:36:42.186Z,100625.62
2019-04-11T23:40:51.205Z,100636.08
2019-04-11T23:44:57.261Z,100633.66
2019-04-11T23:49:03.963Z,100631.20
2019-04-11T23:53:10.644Z,100626.59
2019-04-11T23:57:17.271Z,100631.91
